WetterOnline ( https://www.wetteronline.de )

Wetter aktuell Ehringshausen

Aktuelles Wetter: Gießen (195m)

6-stündlich | Neueste Meldungen
Ortszeit Temperatur Wetter
Sa, 11.07. 20:00 19.4° C fast wolkenlos
Sa, 11.07. 14:00 19.0° C bewölkt
Sa, 11.07. 8:00 13.8° C leicht bewölkt
Sa, 11.07. 2:00 11.3° C wolkenlos
Fr, 10.07. 20:00 18.9° C bewölkt
Fr, 10.07. 14:00 21.3° C bewölkt
Fr, 10.07. 8:00 17.9° C bedeckt
Fr, 10.07. 2:00 16.3° C bewölkt
Ortszeit Temperatur Wetter
So, 12.07. 1:00 11.9° C bedeckt
So, 12.07. 0:50 11.9° C bedeckt
So, 12.07. 0:40 11.9° C bedeckt
So, 12.07. 0:30 12.1° C wolkig
So, 12.07. 0:20 12.1° C wolkig
So, 12.07. 0:10 11.8° C leicht bewölkt
So, 12.07. 0:00 12.9° C wolkenlos
Sa, 11.07. 23:30 12.4° C wolkenlos
Sa, 11.07. 23:00 12.4° C wolkenlos
Sa, 11.07. 22:30 13.5° C wolkenlos
Sa, 11.07. 22:00 13.5° C wolkenlos
Ortszeit Relative Feuchte Sichtweite
Sa, 11.07. 20:00 39% 65 km
Sa, 11.07. 14:00 38% 60 km
Sa, 11.07. 8:00 74% >70 km
Sa, 11.07. 2:00 85% >70 km
Fr, 10.07. 20:00 52% 60 km
Fr, 10.07. 14:00 55% 55 km
Fr, 10.07. 8:00 80% 35 km
Fr, 10.07. 2:00 85% 40 km
Ortszeit Relative Feuchte Sichtweite
So, 12.07. 1:00 74% >70 km
So, 12.07. 0:50 74% -
So, 12.07. 0:40 74% -
So, 12.07. 0:30 71% 60 km
So, 12.07. 0:20 71% -
So, 12.07. 0:10 73% -
So, 12.07. 0:00 67% 55 km
Sa, 11.07. 23:30 71% 65 km
Sa, 11.07. 23:00 69% 60 km
Sa, 11.07. 22:30 62% >70 km
Sa, 11.07. 22:00 62% >70 km
Ortszeit Niederschlagsmenge Niederschlagsart
Sa, 11.07. 20:00 0.0 l/m2 in 12 Std. -
Sa, 11.07. 14:00 0.0 l/m2 in 6 Std. -
Sa, 11.07. 8:00 0.0 l/m2 in 12 Std. -
Sa, 11.07. 2:00 0.0 l/m2 in 6 Std. -
Fr, 10.07. 20:00 0.1 l/m2 in 12 Std. Regen
Fr, 10.07. 14:00 0.0 l/m2 in 6 Std. -
Fr, 10.07. 8:00 0.0 l/m2 in 12 Std. -
Fr, 10.07. 2:00 0.0 l/m2 in 6 Std. -
Ortszeit Niederschlagsmenge Niederschlagsart
So, 12.07. 1:00 0.0 l/m2 in 1 Std. -
So, 12.07. 0:50 keine Meldung -
So, 12.07. 0:40 keine Meldung -
So, 12.07. 0:30 0.0 l/m2 in 1 Std. -
So, 12.07. 0:20 keine Meldung -
So, 12.07. 0:10 keine Meldung -
So, 12.07. 0:00 0.0 l/m2 in 1 Std. -
Sa, 11.07. 23:30 0.0 l/m2 in 1 Std. -
Sa, 11.07. 23:00 0.0 l/m2 in 1 Std. -
Sa, 11.07. 22:30 0.0 l/m2 in 1 Std. -
Sa, 11.07. 22:00 0.0 l/m2 in 1 Std. -
Ortszeit Stärke Spitze Richtung
km/h Bft. km/h Grad Sektor
Sa, 11.07. 20:00 13 3 22 20° N
Sa, 11.07. 14:00 17 3 26 330° NW
Sa, 11.07. 8:00 2 1 15 110° O
Sa, 11.07. 2:00 7 2 36 350° N
Fr, 10.07. 20:00 18 3 43 300° NW
Fr, 10.07. 14:00 28 4 46 250° W
Fr, 10.07. 8:00 6 1 15 240° SW
Fr, 10.07. 2:00 4 1 25 280° W
Ortszeit Stärke Spitze Richtung
km/h Bft. km/h Grad Sektor
So, 12.07. 1:00 4 1 14 70° O
So, 12.07. 0:50 4 1 - 70° O
So, 12.07. 0:40 6 1 - 60° NO
So, 12.07. 0:30 7 2 14 50° NO
So, 12.07. 0:20 7 2 - 50° NO
So, 12.07. 0:10 7 2 - 340° N
So, 12.07. 0:00 7 2 19 360° N
Sa, 11.07. 23:30 7 2 11 20° N
Sa, 11.07. 23:00 6 1 9 300° NW
Sa, 11.07. 22:30 7 2 11 310° NW
Sa, 11.07. 22:00 6 1 9 290° W
Ortszeit Untergrenze Bedeckung Gattung
total tief tief mittel hoch
Sa, 11.07. 20:00 2700 m 1/8 1/8 - - -
Sa, 11.07. 14:00 1800 m 7/8 7/8 - - -
Sa, 11.07. 8:00 1800 m 3/8 3/8 - - -
Sa, 11.07. 2:00 2700 m 0/8 0/8 - - -
Fr, 10.07. 20:00 1230 m 7/8 7/8 - - -
Fr, 10.07. 14:00 1170 m 7/8 7/8 - - -
Fr, 10.07. 8:00 4800 m 8/8 8/8 - - -
Fr, 10.07. 2:00 3300 m 7/8 6/8 - - -
Ortszeit Bedeckungsgrad in Achtel und Wolkenuntergrenze
So, 12.07. 1:00 8(3000m)
So, 12.07. 0:50 8(3000m)
So, 12.07. 0:40 8(3000m)
So, 12.07. 0:30 5(3000m)
So, 12.07. 0:20 5(3000m)
So, 12.07. 0:10 2(3000m)
So, 12.07. 0:00 keine Wolken
Sa, 11.07. 23:30 keine Wolken
Sa, 11.07. 23:00 keine Wolken
Sa, 11.07. 22:30 keine Wolken
Sa, 11.07. 22:00 keine Wolken
Ortszeit Luftdruck NN (hPa) Tendenz (hPa in 3 Std.)
Sa, 11.07. 20:00 1024 + 0,4
Sa, 11.07. 14:00 1023 + 0,6
Sa, 11.07. 8:00 1023 + 1,3
Sa, 11.07. 2:00 1021 + 1,7
Fr, 10.07. 20:00 1016 + 1,2
Fr, 10.07. 14:00 1012 + 2,5
Fr, 10.07. 8:00 1009 - 0,4
Fr, 10.07. 2:00 1011 - 1,3
Ortszeit Luftdruck NN (hPa) Tendenz (hPa in 3 Std.)
So, 12.07. 1:00 1027 + 1,4
So, 12.07. 0:50 1027 keine Meldung
So, 12.07. 0:40 1026 keine Meldung
So, 12.07. 0:30 1026 + 1,6
So, 12.07. 0:20 1026 keine Meldung
So, 12.07. 0:10 1026 keine Meldung
So, 12.07. 0:00 1026 + 1,4
Sa, 11.07. 23:30 1026 + 1,3
Sa, 11.07. 23:00 1026 + 1,3
Sa, 11.07. 22:30 1026 + 1,3
Sa, 11.07. 22:00 1025 + 0,8
Ortszeit Schneehöhe (cm)
Sa, 11.07. 20:00 -
Sa, 11.07. 14:00 -
Sa, 11.07. 8:00 -
Sa, 11.07. 2:00 -
Fr, 10.07. 20:00 -
Fr, 10.07. 14:00 -
Fr, 10.07. 8:00 -
Fr, 10.07. 2:00 -
Ortszeit Schneehöhe (cm)
So, 12.07. 1:00 -
So, 12.07. 0:50 -
So, 12.07. 0:40 -
So, 12.07. 0:30 -
So, 12.07. 0:20 -
So, 12.07. 0:10 -
So, 12.07. 0:00 -
Sa, 11.07. 23:30 -
Sa, 11.07. 23:00 -
Sa, 11.07. 22:30 -
Sa, 11.07. 22:00 -
Link zu dieser Seite / Seite empfehlen

Das Wetter in ...